Flight Track Log - Related Links

Times and Time Zones

All times are in EDT time to prevent confusion due to time zone crossing. See the SWA305 flight status page for this flight to view local times or setup timezone preferences in your user account.

Time Position Orientation Groundspeed Altitude Reporting Facility
EDT Latitude Longitude Course Direction KTS MPH feet Rate Location/Type
Sun 01:12:45 PM 41.8000 -87.7833 180° South 169 194 2,000  Level Chicago TRACON
Sun 01:14:22 PM 41.7825 -87.7222 111° Southeast 237 273 5,500 2,604 Climbing Chicago Center
Sun 01:15:24 PM 41.7064 -87.7239 181° South 266 306 8,900 3,242 Climbing Chicago Center
Sun 01:16:26 PM 41.6244 -87.7247 180° South 289 333 12,200 3,171 Climbing Chicago Center
Sun 01:17:27 PM 41.5375 -87.7239 180° South 307 353 15,400 2,585 Climbing Chicago Center
Sun 01:18:00 PM 41.2038 -87.7167 180° South  Level FlightAware Approximate
Sun 01:18:29 PM 41.4375 -87.7242 180° South 348 400 17,500  Level Chicago Center
Sun 01:19:31 PM 41.3292 -87.7253 180° South 375 432 20,100 2,419 Climbing Chicago Center
Sun 01:20:33 PM 41.2139 -87.7250 180° South 394 453 22,500 2,613 Climbing Chicago Center
Sun 01:21:35 PM 41.0706 -87.7092 175° South 419 482 25,500 2,468 Climbing Chicago Center
Sun 01:22:37 PM 40.9514 -87.6731 167° South 447 514 27,600 1,887 Climbing Chicago Center
Sun 01:23:39 PM 40.8344 -87.6181 160° South 449 517 29,400 1,561 Climbing Chicago Center
Sun 01:24:40 PM 40.7147 -87.5592 160° South 457 526 30,800 1,561 Climbing Chicago Center
Sun 01:25:42 PM 40.5906 -87.5008 160° South 471 542 32,600 1,742 Climbing Chicago Center
Sun 01:26:44 PM 40.4525 -87.4369 161° South 471 542 34,400 1,694 Climbing Chicago Center
Sun 01:27:46 PM 40.3286 -87.3789 160° South 471 542 36,100 1,645 Climbing Chicago Center
Sun 01:28:48 PM 40.2103 -87.3067 155° Southeast 469 540 37,800 1,322 Climbing Chicago Center
Sun 01:29:44 PM 40.0942 -87.2347 155° Southeast 456 525 38,700 610 Climbing Indianapolis Center
Sun 01:30:46 PM 39.9783 -87.1611 154° Southeast 461 531 39,000 145 Climbing Indianapolis Center
Sun 01:31:48 PM 39.8600 -87.0886 155° Southeast 468 539 39,000  Level Indianapolis Center
Sun 01:32:50 PM 39.7425 -87.0167 155° Southeast 466 536 39,000  Level Indianapolis Center
Sun 01:33:52 PM 39.6256 -86.9444 155° Southeast 466 536 39,000  Level Indianapolis Center
Sun 01:34:54 PM 39.4889 -86.8614 155° Southeast 464 534 39,000  Level Indianapolis Center
Sun 01:35:55 PM 39.3719 -86.7906 155° Southeast 464 534 39,000  Level Indianapolis Center
Sun 01:36:57 PM 39.2561 -86.7192 154° Southeast 462 532 39,000  Level Indianapolis Center
Sun 01:37:59 PM 39.1311 -86.6444 155° Southeast 457 526 39,000  Level Indianapolis Center
Sun 01:39:01 PM 39.0256 -86.5800 155° Southeast 456 525 39,000  Level Indianapolis Center
Sun 01:40:03 PM 38.9108 -86.5117 155° Southeast 454 522 39,000  Level Indianapolis Center
Sun 01:41:05 PM 38.7847 -86.4353 155° Southeast 454 522 39,000  Level Indianapolis Center
Sun 01:42:06 PM 38.6694 -86.3681 156° South 452 520 39,000  Level Indianapolis Center
Sun 01:43:08 PM 38.5542 -86.2992 155° Southeast 451 519 39,000  Level Indianapolis Center
Sun 01:44:10 PM 38.4392 -86.2306 155° Southeast 451 519 39,000  Level Indianapolis Center
Sun 01:45:12 PM 38.3239 -86.1631 155° Southeast 451 519 39,000  Level Indianapolis Center
Sun 01:46:14 PM 38.2094 -86.0956 155° Southeast 449 517 39,000  Level Indianapolis Center
Sun 01:47:15 PM 38.0947 -86.0275 155° Southeast 451 519 39,000  Level Indianapolis Center
Sun 01:48:17 PM 37.9572 -85.9483 156° South 450 518 39,000  Level Indianapolis Center
Sun 01:49:19 PM 37.8414 -85.8819 156° South 454 522 39,000  Level Indianapolis Center
Sun 01:50:21 PM 37.7264 -85.8156 155° Southeast 451 519 39,000  Level Indianapolis Center
Sun 01:51:23 PM 37.6114 -85.7486 155° Southeast 453 521 39,000  Level Indianapolis Center
Sun 01:52:25 PM 37.4969 -85.6819 155° Southeast 449 517 39,000  Level Indianapolis Center
Sun 01:53:26 PM 37.3831 -85.6175 156° South 447 514 39,000  Level Indianapolis Center
Sun 01:54:28 PM 37.2628 -85.5483 155° Southeast 443 510 39,000  Level Indianapolis Center
Sun 01:55:30 PM 37.1372 -85.4903 160° South 435 501 39,000  Level Indianapolis Center
Sun 01:56:32 PM 37.0264 -85.4558 166° South 430 495 39,000  Level Indianapolis Center
Sun 01:57:34 PM 36.9100 -85.4200 166° South 429 494 39,000  Level Indianapolis Center
Sun 01:58:36 PM 36.7942 -85.3833 166° South 430 495 39,000  Level Indianapolis Center
Sun 01:59:37 PM 36.6772 -85.3467 166° South 432 497 39,000  Level Indianapolis Center
Sun 02:00:39 PM 36.5403 -85.3039 166° South 424 488 39,000  Level Indianapolis Center
Sun 02:01:41 PM 36.4247 -85.2686 166° South 426 490 39,000  Level Indianapolis Center
Sun 02:02:43 PM 36.3097 -85.2319 166° South 426 490 39,000  Level Indianapolis Center
Sun 02:03:43 PM 36.1864 -85.1964 167° South 434 499 39,000  Level Atlanta Center
Sun 02:04:43 PM 36.0719 -85.1639 167° South 434 499 39,000  Level Atlanta Center
Sun 02:05:43 PM 35.9556 -85.1264 165° South 434 499 39,000  Level Atlanta Center
Sun 02:06:43 PM 35.8472 -85.0967 167° South 434 499 39,000  Level Atlanta Center
Sun 02:07:43 PM 35.7267 -85.0569 165° South 440 506 39,000  Level Atlanta Center
Sun 02:08:43 PM 35.6081 -85.0222 167° South 440 506 39,000  Level Atlanta Center
Sun 02:09:43 PM 35.4894 -84.9850 166° South 440 506 39,000  Level Atlanta Center
Sun 02:10:43 PM 35.3664 -84.9506 167° South 440 506 39,000  Level Atlanta Center
Sun 02:11:43 PM 35.2500 -84.9136 165° South 446 513 39,000  Level Atlanta Center
Sun 02:12:43 PM 35.1292 -84.8794 167° South 446 513 39,000  Level Atlanta Center
Sun 02:13:43 PM 35.0125 -84.8428 166° South 446 513 39,000  Level Atlanta Center
Sun 02:14:43 PM 34.8917 -84.8086 167° South 446 513 39,000  Level Atlanta Center
Sun 02:15:43 PM 34.7750 -84.7722 166° South 446 513 39,000  Level Atlanta Center
Sun 02:16:43 PM 34.6606 -84.7358 165° South 441 507 39,000  Level Atlanta Center
Sun 02:17:43 PM 34.5439 -84.7019 167° South 430 495 39,000  Level Atlanta Center
Sun 02:18:43 PM 34.4231 -84.6683 167° South 437 503 39,000  Level Atlanta Center
Sun 02:19:43 PM 34.2958 -84.6297 166° South 437 503 39,000  Level Atlanta Center
Sun 02:20:43 PM 34.1792 -84.5961 167° South 430 495 39,000  Level Atlanta Center
Sun 02:21:43 PM 34.0686 -84.5628 166° South 436 502 39,000  Level Atlanta Center
Sun 02:22:43 PM 33.9478 -84.5322 168° South 444 511 39,000  Level Atlanta Center
Sun 02:23:43 PM 33.8267 -84.4964 166° South 449 517 39,000  Level Atlanta Center
Sun 02:24:43 PM 33.7039 -84.4608 166° South 454 522 39,000  Level Atlanta Center
Sun 02:25:43 PM 33.5828 -84.4178 164° South 454 522 39,000  Level Atlanta Center
Sun 02:26:43 PM 33.4619 -84.3675 161° South 459 528 39,000  Level Atlanta Center
Sun 02:27:43 PM 33.3306 -84.3122 161° South 464 534 39,000  Level Atlanta Center
Sun 02:28:43 PM 33.2117 -84.2622 161° South 459 528 39,000  Level Atlanta Center
Sun 02:29:43 PM 33.0886 -84.2122 161° South 459 528 39,000  Level Atlanta Center
Sun 02:30:43 PM 32.9717 -84.1675 162° South 459 528 39,000  Level Atlanta Center
Sun 02:31:43 PM 32.8508 -84.1131 159° South 464 534 39,000  Level Atlanta Center
Sun 02:32:43 PM 32.7317 -84.0658 162° South 464 534 39,000  Level Atlanta Center
Sun 02:33:43 PM 32.6108 -84.0142 160° South 464 534 39,000  Level Atlanta Center
Sun 02:34:43 PM 32.4875 -83.9625 161° South 464 534 39,000  Level Atlanta Center
Sun 02:35:43 PM 32.3664 -83.9158 162° South 464 534 39,000  Level Atlanta Center
Sun 02:36:43 PM 32.2453 -83.8669 161° South 464 534 39,000  Level Atlanta Center
Sun 02:37:43 PM 32.1222 -83.8156 161° South 464 534 39,000  Level Atlanta Center
Sun 02:38:04 PM 32.0778 -83.7972 161° South 459 528 39,000  Level Jacksonville Center
Sun 02:39:04 PM 31.9550 -83.7472 161° South 451 519 39,000  Level Jacksonville Center
Sun 02:40:04 PM 31.8425 -83.6972 159° South 458 527 39,000  Level Jacksonville Center
Sun 02:41:04 PM 31.7194 -83.6472 161° South 468 539 39,000  Level Jacksonville Center
Sun 02:42:04 PM 31.5883 -83.5975 162° South 475 547 39,000  Level Jacksonville Center
Sun 02:43:04 PM 31.4694 -83.5528 162° South 475 547 39,000  Level Jacksonville Center
Sun 02:44:04 PM 31.3486 -83.5056 162° South 469 540 39,000  Level Jacksonville Center
Sun 02:45:04 PM 31.2300 -83.4586 161° South 461 531 39,000 -400 Level Jacksonville Center
Sun 02:46:04 PM 31.1089 -83.4094 161° South 461 531 38,200 -850 Descending Jacksonville Center
Sun 02:47:04 PM 30.9881 -83.3628 162° South 461 531 37,300 -950 Descending Jacksonville Center
Sun 02:48:04 PM 30.8692 -83.3161 161° South 461 531 36,300 -950 Descending Jacksonville Center
Sun 02:49:04 PM 30.7567 -83.2650 159° South 456 525 35,400 -700 Descending Jacksonville Center
Sun 02:50:04 PM 30.6400 -83.2089 158° South 456 525 34,900 200 Descending Jacksonville Center
Sun 02:51:04 PM 30.5231 -83.1506 157° South 456 525 35,800 950 Climbing Jacksonville Center
Sun 02:52:04 PM 30.4042 -83.0900 156° South 456 525 36,800 600 Climbing Jacksonville Center
Sun 02:53:04 PM 30.2853 -83.0322 157° South 456 525 37,000 100 Climbing Jacksonville Center
Sun 02:54:04 PM 30.1683 -82.9742 157° South 456 525 37,000  Level Jacksonville Center
Sun 02:55:04 PM 30.0494 -82.9142 156° South 456 525 37,000  Level Jacksonville Center
Sun 02:56:04 PM 29.9200 -82.8519 157° South 456 525 37,000  Level Jacksonville Center
Sun 02:57:04 PM 29.8050 -82.7969 157° South 456 525 37,000  Level Jacksonville Center
Sun 02:58:04 PM 29.6881 -82.7394 157° South 456 525 37,000  Level Jacksonville Center
Sun 02:59:04 PM 29.5733 -82.6825 157° South 456 525 37,000  Level Jacksonville Center
Sun 03:00:04 PM 29.4542 -82.6208 156° South 456 525 37,000  Level Jacksonville Center
Sun 03:01:04 PM 29.3369 -82.5639 157° South 456 525 37,000  Level Jacksonville Center
Sun 03:02:04 PM 29.2200 -82.5072 157° South 456 525 37,000  Level Jacksonville Center
Sun 03:03:04 PM 29.1031 -82.4553 159° South 456 525 37,000  Level Jacksonville Center
Sun 03:04:04 PM 28.9778 -82.4511 178° South 436 502 37,000  Level Jacksonville Center
Sun 03:05:04 PM 28.8544 -82.4611 184° South 441 507 37,000  Level Jacksonville Center
Sun 03:06:04 PM 28.7294 -82.4689 183° South 441 507 37,000  Level Jacksonville Center
Sun 03:07:04 PM 28.6106 -82.4764 183° South 441 507 37,000  Level Jacksonville Center
Sun 03:09:03 PM 28.3633 -82.4897 183° South 444 511 37,000  Level Miami Center
Sun 03:10:03 PM 28.2358 -82.4975 183° South 450 518 37,000  Level Miami Center
Sun 03:11:03 PM 28.1106 -82.5031 182° South 450 518 37,000  Level Miami Center
Sun 03:12:03 PM 27.9911 -82.5111 183° South 450 518 37,000  Level Miami Center
Sun 03:13:03 PM 27.8672 -82.4839 169° South 437 503 37,000  Level Miami Center
Sun 03:14:03 PM 27.7500 -82.4358 160° South 447 514 37,000 -50 Level Miami Center
Sun 03:15:03 PM 27.6308 -82.3925 162° South 452 520 36,900 -500 Descending Miami Center
Sun 03:16:03 PM 27.5236 -82.3547 163° South 459 528 36,000 -950 Descending Miami Center
Sun 03:17:03 PM 27.4022 -82.3114 162° South 459 528 35,000 -1,000 Descending Miami Center
Sun 03:18:03 PM 27.2725 -82.2608 161° South 459 528 34,000 -950 Descending Miami Center
Sun 03:19:03 PM 27.1450 -82.2153 162° South 459 528 33,100 -950 Descending Miami Center
Sun 03:20:03 PM 27.0275 -82.1703 161° South 454 522 32,100 -1,050 Descending Miami Center
Sun 03:21:03 PM 26.9183 -82.1350 164° South 454 522 31,000 -1,600 Descending Miami Center
Sun 03:22:03 PM 26.8008 -82.0903 161° South 454 522 28,900 -2,150 Descending Miami Center
Sun 03:23:03 PM 26.7164 -82.0028 137° Southeast 427 491 26,700 -1,950 Descending Miami Center
Sun 03:24:03 PM 26.6492 -81.8953 125° Southeast 410 472 25,000 -1,350 Descending Miami Center
Sun 03:25:03 PM 26.5839 -81.7903 125° Southeast 410 472 24,000 -1,400 Descending Miami Center
Sun 03:26:03 PM 26.5225 -81.6903 124° Southeast 410 472 22,200 -1,800 Descending Miami Center
Sun 03:27:03 PM 26.4631 -81.5950 125° Southeast 398 458 20,400 -1,850 Descending Miami Center
Sun 03:28:03 PM 26.4033 -81.5022 126° Southeast 385 443 18,500 -1,900 Descending Miami Center
Sun 03:29:03 PM 26.3458 -81.4097 125° Southeast 373 429 16,600 -2,000 Descending Miami Center
Sun 03:30:03 PM 26.2922 -81.3219 124° Southeast 359 413 14,500 -2,000 Descending Miami Center
Sun 03:31:03 PM 26.2469 -81.2297 119° Southeast 348 400 12,600 -1,900 Descending Miami Center
Sun 03:32:03 PM 26.1994 -81.1425 121° Southeast 335 386 10,700 -1,350 Descending Miami Center
Sun 03:33:03 PM 26.1556 -81.0644 122° Southeast 319 367 9,900 -1,105 Descending Miami Center
Sun 03:33:19 PM 26.1397 -81.0386 124° Southeast 269 310 9,300 -1,600 Descending Miami Center
Sun 03:34:03 PM 26.1158 -80.9914 119° Southeast 298 343 8,300 -1,355 Descending Miami Center
Sun 03:34:21 PM 26.1042 -80.9656 117° Southeast 278 320 7,900 -1,000 Descending Miami Center
Sun 03:35:03 PM 26.0911 -80.9097 105° East 276 318 7,300 -984 Descending Miami Center
Sun 03:35:22 PM 26.0817 -80.8769 108° East 275 316 6,900 -1,000 Descending Miami Center
Sun 03:36:03 PM 26.0767 -80.8281 96° East 269 310 6,300 -885 Descending Miami Center
Sun 03:36:23 PM 26.0756 -80.7911 92° East 271 312 6,000 -400 Descending Miami Center
Sun 03:37:03 PM 26.0789 -80.7472 85° East 264 304 5,900  Descending Miami Center
Sun 03:37:30 PM 26.0778 -80.7103 92° East 225 259 6,000  Climbing Miami Center
Sun 03:38:03 PM 26.0806 -80.6781 85° East 245 282 5,900  Descending Miami Center
Sun 03:38:32 PM 26.0756 -80.6361 98° East 226 260 6,000  Climbing Miami Center
Sun 03:39:03 PM 26.0803 -80.6086 79° East 232 267 5,900  Descending Miami Center
Sun 03:39:33 PM 26.0792 -80.5669 92° East 218 251 6,000  Climbing Miami Center
Sun 03:40:03 PM 26.0800 -80.5439 88° East 221 254 5,900  Descending Miami Center
Sun 03:40:34 PM 26.0767 -80.5044 95° East 207 238 6,000 -400 Climbing Miami Center
Sun 03:41:03 PM 26.0794 -80.4792 83° East 209 241 5,500 -1,082 Descending Miami Center
Sun 03:41:35 PM 26.0742 -80.4419 99° East 204 235 4,900 -1,000 Descending Miami Center
Sun 03:42:03 PM 26.0789 -80.4167 78° East 204 235 4,500 -1,180 Descending Miami Center
Sun 03:42:36 PM 26.0736 -80.3772 98° East 191 220 3,700 -1,200 Descending Miami Center
Sun 03:43:38 PM 26.0750 -80.3194 88° East 189 217 2,600 -974 Descending Miami Center
Sun 03:44:33 PM 26.0761 -80.2708 89° East 163 188 1,800 -828 Descending Miami Center
Sun 03:45:34 PM 26.0750 -80.2244 92° East 139 160 1,000 -787 Descending Miami Center
Sun 03:47:00 PM 26.0667 -80.1500 180° South  Level FlightAware Approximate
Sun 03:54:00 PM 26.0726 -80.1527 180° South  Level Estimated
Sun 03:55:00 PM 26.0667 -80.1500 180° South  Level FlightAware Approximate

Login

Don't have an account? Register now (free) for customized features, flight alerts, and more!